createdAt,value
2023-03-16T00:00:22.233Z,95282.00
2023-03-16T00:01:22.209Z,95284.00
2023-03-16T00:02:22.257Z,95284.00
2023-03-16T00:03:22.237Z,95282.00
2023-03-16T00:04:22.208Z,95279.00
2023-03-16T00:05:22.172Z,95282.00
2023-03-16T00:06:24.512Z,95282.00
2023-03-16T00:07:22.165Z,95286.00
2023-03-16T00:08:22.191Z,95288.00
2023-03-16T00:09:22.137Z,95288.00
2023-03-16T00:10:22.124Z,95288.00
2023-03-16T00:11:22.137Z,95288.00
2023-03-16T00:12:22.119Z,95286.00
2023-03-16T00:13:22.098Z,95286.00
2023-03-16T00:14:22.109Z,95284.00
2023-03-16T00:15:22.096Z,95286.00
2023-03-16T00:16:22.112Z,95282.00
2023-03-16T00:17:22.064Z,95290.00
2023-03-16T00:18:22.085Z,95286.00
2023-03-16T00:19:22.048Z,95290.00
2023-03-16T00:20:22.020Z,95290.00
2023-03-16T00:21:22.018Z,95294.00
2023-03-16T00:22:22.009Z,95290.00
2023-03-16T00:23:22.032Z,95292.00
2023-03-16T00:24:22.020Z,95292.00
2023-03-16T00:25:21.974Z,95292.00
2023-03-16T00:26:22.498Z,95290.00
2023-03-16T00:27:21.951Z,95290.00
2023-03-16T00:28:21.953Z,95294.00
2023-03-16T00:29:21.939Z,95294.00
2023-03-16T00:30:21.938Z,95294.00
2023-03-16T00:31:21.936Z,95296.00
2023-03-16T00:32:21.924Z,95300.00
2023-03-16T00:33:21.941Z,95300.00
2023-03-16T00:34:21.935Z,95296.00
2023-03-16T00:35:21.950Z,95298.00
2023-03-16T00:36:21.870Z,95294.00
2023-03-16T00:37:21.901Z,95294.00
2023-03-16T00:38:21.876Z,95292.00
2023-03-16T00:39:21.877Z,95290.00
2023-03-16T00:40:21.878Z,95292.00
2023-03-16T00:41:21.842Z,95292.00
2023-03-16T00:42:21.843Z,95292.00
2023-03-16T00:43:21.809Z,95288.00
2023-03-16T00:44:21.818Z,95294.00
2023-03-16T00:45:21.854Z,95294.00
2023-03-16T00:46:21.905Z,95294.00
2023-03-16T00:47:21.809Z,95292.00
2023-03-16T00:48:21.804Z,95294.00
2023-03-16T00:49:21.833Z,95296.00
2023-03-16T00:50:21.777Z,95294.00
2023-03-16T00:51:21.793Z,95298.00
2023-03-16T00:52:21.818Z,95300.00
2023-03-16T00:53:21.813Z,95298.00
2023-03-16T00:54:21.800Z,95298.00
2023-03-16T00:55:21.784Z,95296.00
2023-03-16T00:56:21.776Z,95296.00
2023-03-16T00:57:21.789Z,95294.00
2023-03-16T00:58:21.790Z,95294.00
2023-03-16T00:59:21.782Z,95292.00
2023-03-16T01:00:21.767Z,95290.00
2023-03-16T01:01:21.879Z,95290.00
2023-03-16T01:02:21.779Z,95288.00
2023-03-16T01:03:21.798Z,95290.00
2023-03-16T01:04:21.802Z,95286.00
2023-03-16T01:05:21.809Z,95286.00
2023-03-16T01:06:21.770Z,95286.00
2023-03-16T01:07:21.770Z,95286.00
2023-03-16T01:08:21.750Z,95286.00
2023-03-16T01:09:21.759Z,95284.00
2023-03-16T01:10:21.769Z,95284.00
2023-03-16T01:11:21.728Z,95284.00
2023-03-16T01:12:21.728Z,95282.00
2023-03-16T01:13:21.735Z,95281.00
2023-03-16T01:14:21.732Z,95279.00
2023-03-16T01:15:21.729Z,95275.00
2023-03-16T01:16:21.728Z,95277.00
2023-03-16T01:17:21.739Z,95275.00
2023-03-16T01:18:21.762Z,95275.00
2023-03-16T01:19:21.775Z,95277.00
2023-03-16T01:20:21.781Z,95279.00
2023-03-16T01:21:21.873Z,95282.00
2023-03-16T01:22:21.836Z,95282.00
2023-03-16T01:23:21.893Z,95282.00
2023-03-16T01:24:21.823Z,95286.00
2023-03-16T01:25:21.875Z,95286.00
2023-03-16T01:26:21.895Z,95286.00
2023-03-16T01:27:21.904Z,95284.00
2023-03-16T01:28:21.948Z,95286.00
2023-03-16T01:29:21.929Z,95288.00
2023-03-16T01:30:21.932Z,95288.00
2023-03-16T01:31:22.078Z,95288.00
2023-03-16T01:32:21.996Z,95290.00
2023-03-16T01:33:22.006Z,95290.00
2023-03-16T01:34:22.041Z,95290.00
2023-03-16T01:35:22.113Z,95290.00
2023-03-16T01:36:22.054Z,95288.00
2023-03-16T01:37:22.064Z,95288.00
2023-03-16T01:38:22.079Z,95290.00
2023-03-16T01:39:22.104Z,95290.00
2023-03-16T01:40:22.131Z,95290.00
2023-03-16T01:41:22.232Z,95294.00
2023-03-16T01:42:22.160Z,95294.00
2023-03-16T01:43:22.162Z,95296.00
2023-03-16T01:44:22.177Z,95294.00
2023-03-16T01:45:22.230Z,95294.00
2023-03-16T01:46:22.271Z,95294.00
2023-03-16T01:47:22.240Z,95294.00
2023-03-16T01:48:24.134Z,95292.00
2023-03-16T01:49:22.378Z,95290.00
2023-03-16T01:50:22.411Z,95288.00
2023-03-16T01:51:22.396Z,95286.00
2023-03-16T01:52:22.412Z,95286.00
2023-03-16T01:53:22.476Z,95286.00
2023-03-16T01:54:22.466Z,95288.00
2023-03-16T01:55:22.452Z,95284.00
2023-03-16T01:56:22.509Z,95288.00
2023-03-16T01:57:22.483Z,95288.00
2023-03-16T01:58:22.501Z,95290.00
2023-03-16T01:59:23.006Z,95290.00
2023-03-16T02:00:22.541Z,95292.00
2023-03-16T02:01:22.574Z,95292.00
2023-03-16T02:02:22.526Z,95290.00
2023-03-16T02:03:22.580Z,95294.00
2023-03-16T02:04:22.625Z,95292.00
2023-03-16T02:05:22.545Z,95294.00
2023-03-16T02:06:22.599Z,95294.00
2023-03-16T02:07:22.579Z,95294.00
2023-03-16T02:08:22.567Z,95294.00
2023-03-16T02:09:22.602Z,95296.00
2023-03-16T02:10:22.579Z,95294.00
2023-03-16T02:11:22.632Z,95292.00
2023-03-16T02:12:22.645Z,95290.00
2023-03-16T02:13:22.641Z,95290.00
2023-03-16T02:14:22.648Z,95288.00
2023-03-16T02:15:22.691Z,95292.00
2023-03-16T02:16:22.848Z,95296.00
2023-03-16T02:17:22.636Z,95298.00
2023-03-16T02:18:22.666Z,95294.00
2023-03-16T02:19:22.694Z,95296.00
2023-03-16T02:20:22.713Z,95294.00
2023-03-16T02:21:22.723Z,95296.00
2023-03-16T02:22:22.713Z,95296.00
2023-03-16T02:23:22.722Z,95296.00
2023-03-16T02:24:22.720Z,95296.00
2023-03-16T02:25:22.762Z,95292.00
2023-03-16T02:26:22.726Z,95292.00
2023-03-16T02:27:22.782Z,95292.00
2023-03-16T02:28:22.851Z,95290.00
2023-03-16T02:29:22.777Z,95292.00
2023-03-16T02:30:22.797Z,95290.00
2023-03-16T02:31:22.828Z,95290.00
2023-03-16T02:32:22.973Z,95296.00
2023-03-16T02:33:22.818Z,95294.00
2023-03-16T02:34:22.853Z,95294.00
2023-03-16T02:35:22.855Z,95296.00
2023-03-16T02:36:22.841Z,95294.00
2023-03-16T02:37:22.880Z,95294.00
2023-03-16T02:38:22.893Z,95296.00
2023-03-16T02:39:22.860Z,95296.00
2023-03-16T02:40:22.921Z,95298.00
2023-03-16T02:41:22.855Z,95300.00
2023-03-16T02:42:22.877Z,95302.00
2023-03-16T02:43:22.886Z,95300.00
2023-03-16T02:44:22.891Z,95304.00
2023-03-16T02:45:22.873Z,95300.00
2023-03-16T02:46:22.923Z,95300.00
2023-03-16T02:47:22.886Z,95296.00
2023-03-16T02:48:22.880Z,95298.00
2023-03-16T02:49:22.897Z,95298.00
2023-03-16T02:50:22.900Z,95296.00
2023-03-16T02:51:22.905Z,95296.00
2023-03-16T02:52:23.062Z,95296.00
2023-03-16T02:53:22.957Z,95298.00
2023-03-16T02:54:22.918Z,95300.00
2023-03-16T02:55:22.927Z,95296.00
2023-03-16T02:56:22.942Z,95300.00
2023-03-16T02:57:22.961Z,95300.00
2023-03-16T02:58:22.988Z,95300.00
2023-03-16T02:59:22.997Z,95300.00
2023-03-16T03:00:22.987Z,95298.00
2023-03-16T03:01:23.003Z,95298.00
2023-03-16T03:02:22.998Z,95302.00
2023-03-16T03:03:23.104Z,95300.00
2023-03-16T03:04:22.989Z,95300.00
2023-03-16T03:05:23.006Z,95302.00
2023-03-16T03:06:23.013Z,95302.00
2023-03-16T03:07:23.055Z,95302.00
2023-03-16T03:08:23.039Z,95300.00
2023-03-16T03:09:23.067Z,95302.00
2023-03-16T03:10:23.107Z,95304.00
2023-03-16T03:11:23.102Z,95304.00
2023-03-16T03:12:23.106Z,95302.00
2023-03-16T03:13:23.123Z,95306.00
2023-03-16T03:14:23.113Z,95310.00
2023-03-16T03:15:23.128Z,95312.00
2023-03-16T03:16:23.302Z,95308.00
2023-03-16T03:17:23.212Z,95312.00
2023-03-16T03:18:23.196Z,95314.00
2023-03-16T03:19:23.239Z,95312.00
2023-03-16T03:20:23.240Z,95316.00
2023-03-16T03:21:23.268Z,95314.00
2023-03-16T03:22:23.285Z,95314.00
2023-03-16T03:23:23.347Z,95314.00
2023-03-16T03:24:23.355Z,95314.00
2023-03-16T03:25:23.405Z,95318.00
2023-03-16T03:26:23.409Z,95318.00
2023-03-16T03:27:23.443Z,95322.00
2023-03-16T03:28:23.469Z,95322.00
2023-03-16T03:29:23.462Z,95324.00
2023-03-16T03:30:23.467Z,95324.00
2023-03-16T03:31:23.546Z,95322.00
2023-03-16T03:32:23.524Z,95326.00
2023-03-16T03:33:23.517Z,95324.00
2023-03-16T03:34:23.571Z,95324.00
2023-03-16T03:35:23.569Z,95324.00
2023-03-16T03:36:23.577Z,95324.00
2023-03-16T03:37:23.582Z,95322.00
2023-03-16T03:38:23.656Z,95324.00
2023-03-16T03:39:23.710Z,95324.00
2023-03-16T03:40:23.708Z,95324.00
2023-03-16T03:41:23.721Z,95320.00
2023-03-16T03:42:23.774Z,95322.00
2023-03-16T03:43:23.823Z,95318.00
2023-03-16T03:44:23.812Z,95316.00
2023-03-16T03:45:23.870Z,95320.00
2023-03-16T03:46:23.957Z,95320.00
2023-03-16T03:47:23.937Z,95322.00
2023-03-16T03:48:23.935Z,95320.00
2023-03-16T03:49:23.986Z,95318.00
2023-03-16T03:50:24.020Z,95316.00
2023-03-16T03:51:24.051Z,95316.00
2023-03-16T03:52:24.207Z,95318.00
2023-03-16T03:53:24.137Z,95318.00
2023-03-16T03:54:24.135Z,95318.00
2023-03-16T03:55:24.198Z,95320.00
2023-03-16T03:56:24.240Z,95320.00
2023-03-16T03:57:24.279Z,95322.00
2023-03-16T03:58:24.351Z,95322.00
2023-03-16T03:59:24.355Z,95322.00
2023-03-16T04:00:24.399Z,95322.00
2023-03-16T04:01:24.410Z,95324.00
2023-03-16T04:02:24.625Z,95322.00
2023-03-16T04:03:24.529Z,95324.00
2023-03-16T04:04:24.508Z,95322.00
2023-03-16T04:05:24.558Z,95320.00
2023-03-16T04:06:24.535Z,95320.00
2023-03-16T04:07:24.627Z,95320.00
2023-03-16T04:08:24.654Z,95316.00
2023-03-16T04:09:24.654Z,95316.00
2023-03-16T04:10:24.695Z,95316.00
2023-03-16T04:11:24.740Z,95318.00
2023-03-16T04:12:24.774Z,95316.00
2023-03-16T04:13:24.805Z,95320.00
2023-03-16T04:14:24.836Z,95320.00
2023-03-16T04:15:24.903Z,95324.00
2023-03-16T04:16:24.997Z,95320.00
2023-03-16T04:17:24.973Z,95320.00
2023-03-16T04:18:24.948Z,95320.00
2023-03-16T04:19:25.028Z,95320.00
2023-03-16T04:20:25.037Z,95318.00
2023-03-16T04:21:25.063Z,95314.00
2023-03-16T04:22:25.090Z,95314.00
2023-03-16T04:23:25.219Z,95312.00
2023-03-16T04:24:25.183Z,95316.00
2023-03-16T04:25:25.178Z,95314.00
2023-03-16T04:26:25.197Z,95314.00
2023-03-16T04:27:25.220Z,95318.00
2023-03-16T04:28:25.279Z,95318.00
2023-03-16T04:29:25.316Z,95316.00
2023-03-16T04:30:25.327Z,95318.00
2023-03-16T04:31:25.383Z,95314.00
2023-03-16T04:32:25.449Z,95318.00
2023-03-16T04:33:25.405Z,95316.00
2023-03-16T04:34:25.423Z,95314.00
2023-03-16T04:35:25.470Z,95314.00
2023-03-16T04:36:25.465Z,95314.00
2023-03-16T04:37:25.519Z,95312.00
2023-03-16T04:38:25.551Z,95316.00
2023-03-16T04:39:25.585Z,95316.00
2023-03-16T04:40:25.944Z,95314.00
2023-03-16T04:41:25.640Z,95316.00
2023-03-16T04:42:25.642Z,95314.00
2023-03-16T04:43:25.699Z,95314.00
2023-03-16T04:44:25.689Z,95312.00
2023-03-16T04:45:25.747Z,95312.00
2023-03-16T04:46:25.796Z,95312.00
2023-03-16T04:47:25.813Z,95314.00
2023-03-16T04:48:25.832Z,95312.00
2023-03-16T04:49:25.876Z,95312.00
2023-03-16T04:50:26.266Z,95308.00
2023-03-16T04:51:25.889Z,95310.00
2023-03-16T04:52:26.048Z,95306.00
2023-03-16T04:53:26.013Z,95306.00
2023-03-16T04:54:25.998Z,95306.00
2023-03-16T04:55:26.307Z,95304.00
2023-03-16T04:56:26.070Z,95304.00
2023-03-16T04:57:26.112Z,95304.00
2023-03-16T04:58:26.145Z,95304.00
2023-03-16T04:59:26.149Z,95302.00
2023-03-16T05:00:26.557Z,95302.00
2023-03-16T05:01:26.258Z,95304.00
2023-03-16T05:02:26.251Z,95304.00
2023-03-16T05:03:26.232Z,95304.00
2023-03-16T05:04:26.258Z,95304.00
2023-03-16T05:05:26.363Z,95304.00
2023-03-16T05:06:26.326Z,95304.00
2023-03-16T05:07:26.350Z,95308.00
2023-03-16T05:08:26.368Z,95304.00
2023-03-16T05:09:26.434Z,95306.00
2023-03-16T05:10:26.816Z,95306.00
2023-03-16T05:11:26.464Z,95308.00
2023-03-16T05:12:26.509Z,95308.00
2023-03-16T05:13:26.531Z,95308.00
2023-03-16T05:14:26.567Z,95310.00
2023-03-16T05:15:26.588Z,95310.00
2023-03-16T05:16:26.676Z,95310.00
2023-03-16T05:17:26.678Z,95310.00
2023-03-16T05:18:26.671Z,95314.00
2023-03-16T05:19:26.697Z,95316.00
2023-03-16T05:20:27.072Z,95314.00
2023-03-16T05:21:26.753Z,95316.00
2023-03-16T05:22:26.820Z,95318.00
2023-03-16T05:23:26.853Z,95318.00
2023-03-16T05:24:26.871Z,95318.00
2023-03-16T05:25:26.888Z,95320.00
2023-03-16T05:26:26.901Z,95322.00
2023-03-16T05:27:26.939Z,95322.00
2023-03-16T05:28:26.980Z,95316.00
2023-03-16T05:29:26.997Z,95318.00
2023-03-16T05:30:27.407Z,95316.00
2023-03-16T05:31:27.084Z,95316.00
2023-03-16T05:32:27.098Z,95320.00
2023-03-16T05:33:27.119Z,95320.00
2023-03-16T05:34:27.171Z,95322.00
2023-03-16T05:35:27.371Z,95324.00
2023-03-16T05:36:27.213Z,95324.00
2023-03-16T05:37:27.244Z,95324.00
2023-03-16T05:38:27.293Z,95324.00
2023-03-16T05:39:27.328Z,95320.00
2023-03-16T05:40:27.548Z,95322.00
2023-03-16T05:41:27.361Z,95320.00
2023-03-16T05:42:27.415Z,95320.00
2023-03-16T05:43:27.460Z,95320.00
2023-03-16T05:44:27.462Z,95324.00
2023-03-16T05:45:27.565Z,95328.00
2023-03-16T05:46:27.581Z,95328.00
2023-03-16T05:47:27.607Z,95326.00
2023-03-16T05:48:27.635Z,95322.00
2023-03-16T05:49:27.671Z,95320.00
2023-03-16T05:50:27.943Z,95322.00
2023-03-16T05:51:27.705Z,95324.00
2023-03-16T05:52:27.731Z,95320.00
2023-03-16T05:53:27.748Z,95322.00
2023-03-16T05:54:27.787Z,95320.00
2023-03-16T05:55:27.824Z,95322.00
2023-03-16T05:56:27.868Z,95322.00
2023-03-16T05:57:27.876Z,95324.00
2023-03-16T05:58:27.902Z,95324.00
2023-03-16T05:59:27.903Z,95322.00
2023-03-16T06:00:28.188Z,95324.00
2023-03-16T06:01:34.977Z,95322.00
2023-03-16T06:02:27.947Z,95326.00
2023-03-16T06:03:27.920Z,95324.00
2023-03-16T06:04:27.923Z,95326.00
2023-03-16T06:05:27.901Z,95324.00
2023-03-16T06:06:27.878Z,95322.00
2023-03-16T06:07:29.211Z,95324.00
2023-03-16T06:08:27.910Z,95322.00
2023-03-16T06:09:27.829Z,95320.00
2023-03-16T06:10:28.080Z,95320.00
2023-03-16T06:11:27.819Z,95326.00
2023-03-16T06:12:27.792Z,95322.00
2023-03-16T06:13:27.785Z,95324.00
2023-03-16T06:14:27.754Z,95324.00
2023-03-16T06:15:27.706Z,95324.00
2023-03-16T06:16:27.723Z,95331.00
2023-03-16T06:17:27.676Z,95333.00
2023-03-16T06:18:27.680Z,95333.00
2023-03-16T06:19:27.617Z,95333.00
2023-03-16T06:20:27.826Z,95335.00
2023-03-16T06:21:27.610Z,95337.00
2023-03-16T06:22:27.569Z,95337.00
2023-03-16T06:23:27.578Z,95339.00
2023-03-16T06:24:27.516Z,95337.00
2023-03-16T06:25:27.511Z,95337.00
2023-03-16T06:26:27.514Z,95335.00
2023-03-16T06:27:27.461Z,95341.00
2023-03-16T06:28:27.441Z,95335.00
2023-03-16T06:29:27.483Z,95337.00
2023-03-16T06:30:27.740Z,95337.00
2023-03-16T06:31:27.599Z,95337.00
2023-03-16T06:32:27.630Z,95337.00
2023-03-16T06:44:28.150Z,95339.00
2023-03-16T06:45:27.970Z,95341.00
2023-03-16T06:46:35.520Z,95337.00
2023-03-16T06:47:27.979Z,95341.00
2023-03-16T06:48:27.988Z,95339.00
2023-03-16T06:49:27.984Z,95337.00
2023-03-16T06:50:28.198Z,95335.00
2023-03-16T06:51:27.973Z,95335.00
2023-03-16T06:52:27.964Z,95335.00
2023-03-16T06:53:28.000Z,95333.00
2023-03-16T06:54:27.927Z,95333.00
2023-03-16T06:55:27.962Z,95335.00
2023-03-16T06:56:27.981Z,95333.00
2023-03-16T06:57:27.895Z,95335.00
2023-03-16T06:58:27.917Z,95335.00
2023-03-16T06:59:27.910Z,95337.00
2023-03-16T07:00:28.043Z,95335.00
2023-03-16T07:01:27.889Z,95335.00
2023-03-16T07:02:27.836Z,95331.00
2023-03-16T07:03:27.896Z,95331.00
2023-03-16T07:04:27.936Z,95329.00
2023-03-16T07:05:27.795Z,95335.00
2023-03-16T07:06:27.739Z,95331.00
2023-03-16T07:07:27.713Z,95333.00
2023-03-16T07:08:27.759Z,95331.00
2023-03-16T07:09:27.783Z,95333.00
2023-03-16T07:10:28.006Z,95333.00
2023-03-16T07:11:27.915Z,95333.00
2023-03-16T07:12:27.843Z,95333.00
2023-03-16T07:13:27.984Z,95329.00
2023-03-16T07:14:27.914Z,95335.00
2023-03-16T07:15:29.307Z,95335.00
2023-03-16T07:16:28.049Z,95335.00
2023-03-16T07:17:27.962Z,95333.00
2023-03-16T07:18:28.099Z,95331.00
2023-03-16T07:19:28.017Z,95331.00
2023-03-16T07:20:28.327Z,95329.00
2023-03-16T07:21:28.104Z,95329.00
2023-03-16T07:22:28.100Z,95328.00
2023-03-16T07:23:28.122Z,95328.00
2023-03-16T07:24:28.120Z,95326.00
2023-03-16T07:25:28.147Z,95328.00
2023-03-16T07:26:28.123Z,95324.00
2023-03-16T07:27:28.170Z,95328.00
2023-03-16T07:28:28.208Z,95326.00
2023-03-16T07:29:28.270Z,95331.00
2023-03-16T07:30:28.412Z,95329.00
2023-03-16T07:31:28.274Z,95329.00
2023-03-16T07:32:28.321Z,95331.00
2023-03-16T07:33:29.432Z,95329.00
2023-03-16T07:34:28.271Z,95329.00
2023-03-16T07:35:28.230Z,95328.00
2023-03-16T07:36:28.174Z,95328.00
2023-03-16T07:37:28.183Z,95331.00
2023-03-16T07:38:28.079Z,95335.00
2023-03-16T07:39:28.076Z,95337.00
2023-03-16T07:40:28.452Z,95339.00
2023-03-16T07:41:28.053Z,95335.00
2023-03-16T07:42:28.041Z,95333.00
2023-03-16T07:43:27.955Z,95331.00
2023-03-16T07:44:27.960Z,95335.00
2023-03-16T07:45:28.434Z,95335.00
2023-03-16T07:46:28.020Z,95329.00
2023-03-16T07:47:27.965Z,95329.00
2023-03-16T07:48:27.914Z,95331.00
2023-03-16T07:49:27.973Z,95329.00
2023-03-16T07:50:28.093Z,95335.00
2023-03-16T07:51:27.857Z,95331.00
2023-03-16T07:52:27.866Z,95333.00
2023-03-16T07:53:27.866Z,95331.00
2023-03-16T07:54:27.861Z,95329.00
2023-03-16T07:55:28.232Z,95324.00
2023-03-16T07:56:33.646Z,95326.00
2023-03-16T07:57:28.767Z,95326.00
2023-03-16T07:58:27.747Z,95326.00
2023-03-16T07:59:28.740Z,95322.00
2023-03-16T08:00:27.933Z,95328.00
2023-03-16T08:01:27.669Z,95326.00
2023-03-16T08:02:27.704Z,95324.00
2023-03-16T08:03:27.641Z,95326.00
2023-03-16T08:04:27.593Z,95328.00
2023-03-16T08:05:28.120Z,95328.00
2023-03-16T08:06:27.604Z,95326.00
2023-03-16T08:07:27.486Z,95331.00
2023-03-16T08:08:27.496Z,95324.00
2023-03-16T08:10:27.740Z,95320.00
2023-03-16T08:11:27.446Z,95320.00
2023-03-16T08:19:27.950Z,95312.00
2023-03-16T08:20:27.969Z,95310.00
2023-03-16T08:30:28.573Z,95306.00
2023-03-16T08:33:27.977Z,95296.00
2023-03-16T08:34:27.942Z,95298.00
2023-03-16T08:35:28.030Z,95302.00
2023-03-16T08:36:28.190Z,95300.00
2023-03-16T08:37:28.135Z,95298.00
2023-03-16T08:38:28.111Z,95294.00
2023-03-16T08:39:28.123Z,95296.00
2023-03-16T08:40:28.536Z,95296.00
2023-03-16T08:41:28.173Z,95298.00
2023-03-16T08:42:28.204Z,95294.00
2023-03-16T08:43:28.170Z,95298.00
2023-03-16T08:44:28.246Z,95298.00
2023-03-16T08:45:28.300Z,95296.00
2023-03-16T08:46:28.485Z,95300.00
2023-03-16T08:47:28.588Z,95296.00
2023-03-16T08:48:28.324Z,95298.00
2023-03-16T08:49:28.396Z,95298.00
2023-03-16T08:50:28.588Z,95292.00
2023-03-16T08:51:28.395Z,95294.00
2023-03-16T08:52:28.450Z,95292.00
2023-03-16T08:53:28.464Z,95290.00
2023-03-16T08:54:28.527Z,95290.00
2023-03-16T08:55:28.489Z,95284.00
2023-03-16T08:58:28.546Z,95286.00
2023-03-16T08:59:30.435Z,95282.00
2023-03-16T09:00:28.827Z,95281.00
2023-03-16T09:01:28.658Z,95281.00
2023-03-16T09:02:28.652Z,95281.00
2023-03-16T09:03:28.624Z,95281.00
2023-03-16T09:05:28.708Z,95279.00
2023-03-16T09:07:28.744Z,95277.00
2023-03-16T09:08:28.785Z,95275.00
2023-03-16T09:09:28.837Z,95277.00
2023-03-16T09:10:29.154Z,95275.00
2023-03-16T09:12:28.883Z,95273.00
2023-03-16T09:13:28.961Z,95271.00
2023-03-16T09:14:28.968Z,95271.00
2023-03-16T09:15:28.978Z,95271.00
2023-03-16T09:16:28.991Z,95273.00
2023-03-16T09:17:29.048Z,95269.00
2023-03-16T09:18:29.029Z,95273.00
2023-03-16T09:19:34.857Z,95271.00
2023-03-16T09:20:30.342Z,95273.00
2023-03-16T09:21:29.010Z,95267.00
2023-03-16T09:22:29.015Z,95267.00
2023-03-16T09:23:28.962Z,95265.00
2023-03-16T09:24:28.978Z,95263.00
2023-03-16T09:26:28.996Z,95263.00
2023-03-16T09:27:28.953Z,95259.00
2023-03-16T09:28:28.890Z,95259.00
2023-03-16T09:29:28.878Z,95257.00
2023-03-16T09:30:29.163Z,95257.00
2023-03-16T09:32:28.825Z,95255.00
2023-03-16T09:33:28.856Z,95253.00
2023-03-16T09:34:29.457Z,95253.00
2023-03-16T09:35:29.057Z,95249.00
2023-03-16T09:37:35.335Z,95251.00
2023-03-16T09:38:29.757Z,95253.00
2023-03-16T09:39:28.733Z,95255.00
2023-03-16T09:40:28.664Z,95249.00
2023-03-16T09:43:28.686Z,95247.00
2023-03-16T09:44:28.666Z,95245.00
2023-03-16T10:57:32.343Z,95155.00
2023-03-16T11:07:31.770Z,95149.00
2023-03-16T11:22:32.753Z,95120.00
2023-03-16T11:25:31.684Z,95112.00
2023-03-16T11:27:31.809Z,95110.00
2023-03-16T11:29:31.707Z,95104.00
2023-03-16T11:30:31.721Z,95102.00
2023-03-16T11:31:31.765Z,95100.00
2023-03-16T11:32:31.862Z,95098.00
2023-03-16T11:33:31.734Z,95096.00
2023-03-16T11:34:31.779Z,95094.00
2023-03-16T11:35:32.041Z,95092.00
2023-03-16T11:36:31.827Z,95090.00
2023-03-16T11:37:31.810Z,95087.00
2023-03-16T11:38:32.301Z,95085.00
2023-03-16T11:39:31.825Z,95083.00
2023-03-16T11:40:31.869Z,95077.00
2023-03-16T11:41:31.824Z,95077.00
2023-03-16T11:42:32.871Z,95077.00
2023-03-16T11:43:31.861Z,95071.00
2023-03-16T11:44:31.915Z,95071.00
2023-03-16T11:45:31.938Z,95071.00
2023-03-16T11:46:32.079Z,95069.00
2023-03-16T11:47:31.999Z,95071.00
2023-03-16T11:48:32.051Z,95069.00
2023-03-16T11:49:31.979Z,95067.00
2023-03-16T11:50:32.059Z,95067.00
2023-03-16T11:51:32.067Z,95071.00
2023-03-16T11:52:32.085Z,95065.00
2023-03-16T11:53:32.316Z,95063.00
2023-03-16T11:54:32.099Z,95059.00
2023-03-16T11:55:32.188Z,95057.00
2023-03-16T11:56:32.136Z,95057.00
2023-03-16T11:57:32.179Z,95059.00
2023-03-16T11:58:32.203Z,95055.00
2023-03-16T11:59:32.287Z,95055.00
2023-03-16T12:00:32.249Z,95053.00
2023-03-16T12:01:32.272Z,95051.00
2023-03-16T12:02:32.347Z,95051.00
2023-03-16T12:03:32.895Z,95045.00
2023-03-16T12:04:32.373Z,95043.00
2023-03-16T12:05:32.381Z,95041.00
2023-03-16T12:06:32.403Z,95039.00
2023-03-16T12:07:32.397Z,95039.00
2023-03-16T12:08:32.409Z,95037.00
2023-03-16T12:09:32.436Z,95035.00
2023-03-16T12:10:32.440Z,95035.00
2023-03-16T12:11:32.449Z,95032.00
2023-03-16T12:12:32.501Z,95028.00
2023-03-16T12:13:32.814Z,95028.00
2023-03-16T12:14:32.512Z,95026.00
2023-03-16T12:15:32.580Z,95022.00
2023-03-16T12:16:46.344Z,95020.00
2023-03-16T12:17:33.559Z,95016.00
2023-03-16T12:18:32.609Z,95012.00
2023-03-16T12:19:32.602Z,95014.00
2023-03-16T12:20:32.586Z,95010.00
2023-03-16T12:21:32.578Z,95012.00
2023-03-16T12:22:32.512Z,95008.00
2023-03-16T12:23:32.821Z,95006.00
2023-03-16T12:24:32.473Z,95006.00
2023-03-16T12:25:32.532Z,95002.00
2023-03-16T12:26:32.506Z,94998.00
2023-03-16T12:27:32.500Z,94994.00
2023-03-16T12:28:32.806Z,94992.00
2023-03-16T12:29:32.902Z,94992.00
2023-03-16T12:30:33.242Z,94988.00
2023-03-16T12:31:32.679Z,94988.00
2023-03-16T12:32:32.479Z,94986.00
2023-03-16T12:33:32.433Z,94986.00
2023-03-16T12:34:32.794Z,94988.00
2023-03-16T12:35:32.822Z,94988.00
2023-03-16T12:36:32.447Z,94986.00
2023-03-16T12:37:32.472Z,94986.00
2023-03-16T12:38:32.470Z,94981.00
2023-03-16T12:39:32.523Z,94981.00
2023-03-16T12:40:32.516Z,94977.00
2023-03-16T12:41:32.539Z,94977.00
2023-03-16T12:42:32.563Z,94975.00
2023-03-16T12:43:32.601Z,94975.00
2023-03-16T12:44:32.620Z,94971.00
2023-03-16T12:45:32.742Z,94971.00
2023-03-16T12:46:32.636Z,94967.00
2023-03-16T12:47:32.680Z,94963.00
2023-03-16T12:48:32.643Z,94967.00
2023-03-16T12:49:32.635Z,94961.00
2023-03-16T12:50:32.726Z,94965.00
2023-03-16T12:51:32.676Z,94961.00
2023-03-16T12:52:32.778Z,94961.00
2023-03-16T12:53:32.750Z,94961.00
2023-03-16T12:54:32.782Z,94957.00
2023-03-16T12:55:32.757Z,94957.00
2023-03-16T12:56:32.797Z,94955.00
2023-03-16T12:57:32.809Z,94957.00
2023-03-16T12:58:32.814Z,94955.00
2023-03-16T12:59:32.823Z,94957.00
2023-03-16T13:00:32.869Z,94957.00
2023-03-16T13:01:32.922Z,94953.00
2023-03-16T13:02:32.914Z,94953.00
2023-03-16T13:03:32.880Z,94949.00
2023-03-16T13:04:32.958Z,94951.00
2023-03-16T13:05:32.900Z,94951.00
2023-03-16T13:06:35.151Z,94951.00
2023-03-16T13:07:32.900Z,94951.00
2023-03-16T13:08:32.898Z,94949.00
2023-03-16T13:09:32.877Z,94947.00
2023-03-16T13:10:32.824Z,94947.00
2023-03-16T13:11:32.842Z,94943.00
2023-03-16T13:12:32.954Z,94943.00
2023-03-16T13:13:32.859Z,94941.00
2023-03-16T13:14:32.822Z,94939.00
2023-03-16T13:15:32.812Z,94939.00
2023-03-16T13:16:32.841Z,94939.00
2023-03-16T13:17:32.874Z,94941.00
2023-03-16T13:18:32.794Z,94939.00
2023-03-16T13:19:32.785Z,94938.00
2023-03-16T13:20:32.883Z,94938.00
2023-03-16T13:21:32.733Z,94936.00
2023-03-16T13:22:32.722Z,94936.00
2023-03-16T13:23:32.695Z,94934.00
2023-03-16T13:24:32.679Z,94932.00
2023-03-16T13:25:32.673Z,94930.00
2023-03-16T13:26:32.701Z,94930.00
2023-03-16T13:27:32.663Z,94928.00
2023-03-16T13:28:32.667Z,94928.00
2023-03-16T13:29:32.627Z,94928.00
2023-03-16T13:30:32.867Z,94928.00
2023-03-16T13:31:32.689Z,94924.00
2023-03-16T13:32:32.604Z,94924.00
2023-03-16T13:33:32.547Z,94924.00
2023-03-16T13:34:32.550Z,94920.00
2023-03-16T13:35:32.538Z,94922.00
2023-03-16T13:36:32.535Z,94916.00
2023-03-16T13:37:32.504Z,94916.00
2023-03-16T13:38:32.496Z,94914.00
2023-03-16T13:39:32.454Z,94914.00
2023-03-16T13:40:32.428Z,94914.00
2023-03-16T13:41:32.427Z,94912.00
2023-03-16T13:42:32.411Z,94912.00
2023-03-16T13:43:32.384Z,94912.00
2023-03-16T13:44:32.406Z,94916.00
2023-03-16T13:45:32.474Z,94914.00
2023-03-16T13:46:32.323Z,94910.00
2023-03-16T13:47:32.337Z,94910.00
2023-03-16T13:48:32.280Z,94910.00
2023-03-16T13:49:32.258Z,94910.00
2023-03-16T13:50:32.269Z,94906.00
2023-03-16T13:51:32.233Z,94906.00
2023-03-16T13:52:32.238Z,94908.00
2023-03-16T13:53:32.243Z,94902.00
2023-03-16T13:54:32.185Z,94902.00
2023-03-16T13:55:32.216Z,94900.00
2023-03-16T13:56:32.158Z,94900.00
2023-03-16T13:57:32.131Z,94900.00
2023-03-16T13:58:34.252Z,94902.00
2023-03-16T13:59:32.148Z,94900.00
2023-03-16T14:00:32.102Z,94904.00
2023-03-16T14:01:32.173Z,94904.00
2023-03-16T14:02:32.498Z,94906.00
2023-03-16T14:03:32.064Z,94900.00